Skip Navigation Links
NOAA logo - Click to go to the NOAA homepage
NOAA's National Weather Service
Alaska Aviation Weather Unit
  NWS logo - Click to go to the NWS homepage
Left Navbar Graphic     19 AKDT = 03 GMT

   
NOAA is celebrating 200 years of science, service, and stewardship. Visit the NOAA 200th celebration Web site to learn more.
USA.gov is the U.S. Government's official Web portal to all Federal, state and local government Web resources and services.
Facebook
NWS on Facebook

Important Change Regarding the AAWU Web Presence

 

Over the last several months, the AAWU has been working to navigate its webpages to a nationally supported server. Security, as well as other needs, have necessitated the change.  We have been given an extension for the site changeover while we diligently work at addressing feedback received. As of July 14, 2017, aawu.arh.noaa.gov will be discontinued. The new AAWU web address is weather.gov/aawu. It is now live and will run in-parallel with the old site until it is discontinued on July 14, 2017. Please continue to send any feedback or questions regarding the new webpages to nws.ar.aawu.webauthors@noaa.gov.  Thank you for your patience during this time of transition.
AAWU Home :: Display TAF Add Bookmark
METAR PADE 282153Z AUTO 15019G23KT 10SM BKN033 BKN040 OVC048 17/09
 A2966 RMK AO2 PK WND 13026/2101 RAB01E11 SLP044 P0000 T01720089
 TSNO $=

METAR PADE 282253Z AUTO 15022G27KT 10SM -RA FEW035 BKN045 17/08
 A2967 RMK AO2 PK WND 14029/2229 RAB31 SLP048 P0000 T01670083
 TSNO $=

METAR PADE 282353Z AUTO 14022G27KT 10SM -RA FEW037 BKN100 17/08
 A2967 RMK AO2 PK WND 14027/2321 RAE03B23 SLP048 P0000 60000
 T01670083 10178 20144 51007 TSNO $=

METAR PADE 290053Z AUTO 14020G27KT 10SM -RA FEW038 SCT055 BKN070 17/08
     A2968 RMK AO2 PK WND 13027/0044 RAE12B33 SLP052 P0000
     T01670083 TSNO $=

METAR PADE 290153Z AUTO 16017G22KT 10SM BKN032 BKN044 17/08 A2968 RMK
     AO2 PK WND 12029/0129 RAE46 SLP052 P0000 T01720083 TSNO $=

METAR PADE 290253Z AUTO 14014KT 10SM BKN048 16/08 A2970 RMK AO2
 SLP057 60000 T01610083 53009 TSNO $=


NOAA's National Weather Service
Alaska Aviation Weather Unit
6930 Sand Lake Road
Anchorage, AK 99502-1845
Disclaimer
Credits
Glossary
Privacy Policy
About Us
Career Opportunities
Contact AAWU Internet Services Site last modified: April, 17th 2012